Terminal Aerodrome Forecast
Issued by NWS

Home | Current Version | Previous Version | Text Only | Print | Product List | Glossary On
Versions: 1 2 3 4 5 6 7 8 9 10 11 12 13 14 15 16 17 18
842
FTUS46 KPDT 210538
TAFRDM
TAF
KRDM 210538Z 2106/2206 15008KT P6SM BKN070
     FM210900 18008KT P6SM -RA OVC050
     FM211500 18012G22KT P6SM -RA OVC050
     FM212200 22015G25KT P6SM VCSH BKN050 BKN100
     FM220200 22022G32KT P6SM SCT050 BKN100=

USA.gov is the U.S. government's official web portal to all federal, state and local government web resources and services.